Time;durP1;ratioP1;P1;durP2;ratioP2;P2;SDS_P1;SDS_P2;PMS_P1;PMS_P2;Temp;Humidity;BMP_temperature;BMP_pressure;BME280_temperature;BME280_humidity;BME280_pressure;Samples;Min_cycle;Max_cycle;Signal;HPM_P1;HPM_P2
2022/11/06 00:02:17;;;;;;;;;;;;;;;;;;4960338;28;19925;-56
2022/11/06 00:04:42;;;;;;;;;;;;;;;;;;4960659;28;19922;-57
2022/11/06 00:07:07;;;;;;;;;;;;;;;;;;4958739;28;19922;-56
2022/11/06 00:09:33;;;;;;;;;;;;;;;;;;4955063;28;19934;-56
2022/11/06 00:11:58;;;;;;;;;;;;;;;;;;4958160;28;19941;-56
2022/11/06 00:14:24;;;;;;;;;;;;;;;;;;4961356;28;20376;-57
2022/11/06 00:16:49;;;;;;;;;;;;;;;;;;4964184;28;20477;-57
2022/11/06 00:19:15;;;;;;;;;;;;;;;;;;4958008;28;19918;-57
2022/11/06 00:21:40;;;;;;;;;;;;;;;;;;4957803;28;20415;-56
2022/11/06 00:24:06;;;;;;;;;;;;;;;;;;4954352;28;20395;-56
2022/11/06 00:26:32;;;;;;;;;;;;;;;;;;4957075;28;19919;-57
2022/11/06 00:28:58;;;;;;;;;;;;;;;;;;4962392;28;19976;-57
2022/11/06 00:31:25;;;;;;;;;;;;;;;;;;4955578;28;19930;-57
2022/11/06 00:33:51;;;;;;;;;;;;;;;;;;4954063;28;19930;-57
2022/11/06 00:36:18;;;;;;;;;;;;;;;;;;4949441;28;19919;-57
2022/11/06 00:38:43;;;;;;;;;;;;;;;;;;4954322;28;20392;-57
2022/11/06 00:41:12;;;;;;;;;;;;;;;;;;4961473;28;19925;-56
2022/11/06 00:43:38;;;;;;;;;;;;;;;;;;4960358;28;19927;-56
2022/11/06 00:46:06;;;;;;;;;;;;;;;;;;4957348;28;20299;-56
2022/11/06 00:48:32;;;;;;;;;;;;;;;;;;4957600;28;20400;-56
2022/11/06 00:51:04;;;;;;;;;;;;;;;;;;4954826;28;19926;-57
2022/11/06 00:53:29;;;;;;;;;;;;;;;;;;4966362;28;20001;-55
2022/11/06 00:55:54;;;;;;;;;;;;;;;;;;4968257;28;20009;-56
2022/11/06 00:58:20;;;;;;;;;;;;;;;;;;4963021;28;20343;-57
2022/11/06 01:00:45;;;;;;;;;;;;;;;;;;4955471;28;19918;-56
2022/11/06 01:03:10;;;;;;;;;;;;;;;;;;4960122;28;20376;-56
2022/11/06 01:05:35;;;;;;;;;;;;;;;;;;4958431;28;20422;-57
2022/11/06 01:08:01;;;;;;;;;;;;;;;;;;4966406;28;20463;-56
2022/11/06 01:10:26;;;;;;;;;;;;;;;;;;4965983;28;19963;-56
2022/11/06 01:12:51;;;;;;;;;;;;;;;;;;4966926;28;19922;-56
2022/11/06 01:15:17;;;;;;;;;;;;;;;;;;4962630;28;19921;-56
2022/11/06 01:17:42;;;;;;;;;;;;;;;;;;4968011;28;19922;-56
2022/11/06 01:20:07;;;;;;;;;;;;;;;;;;4970125;28;19918;-56
2022/11/06 01:22:33;;;;;;;;;;;;;;;;;;4971598;28;19914;-56
2022/11/06 01:24:58;;;;;;;;;;;;;;;;;;4968894;28;20449;-56
2022/11/06 01:27:23;;;;;;;;;;;;;;;;;;4961763;28;20002;-56
2022/11/06 01:29:49;;;;;;;;;;;;;;;;;;4971831;28;19993;-57
2022/11/06 01:32:14;;;;;;;;;;;;;;;;;;4978399;28;19914;-56
2022/11/06 01:34:39;;;;;;;;;;;;;;;;;;4963157;28;19918;-58
2022/11/06 01:37:04;;;;;;;;;;;;;;;;;;4957983;28;19962;-57
2022/11/06 01:39:30;;;;;;;;;;;;;;;;;;4967675;28;20399;-56
2022/11/06 01:41:55;;;;;;;;;;;;;;;;;;4963095;28;19925;-56
2022/11/06 01:44:52;;;;;;;;;;;;;;;;;;4970126;28;19925;-56
2022/11/06 01:47:19;;;;;;;;;;;;;;;;;;4960792;28;19929;-56
2022/11/06 01:49:44;;;;;;;;;;;;;;;;;;4972737;28;19922;-56
2022/11/06 01:52:11;;;;;;;;;;;;;;;;;;4963082;28;19949;-56
2022/11/06 01:54:38;;;;;;;;;;;;;;;;;;4962520;28;19918;-55
2022/11/06 01:57:04;;;;;;;;;;;;;;;;;;4958898;28;19914;-56
2022/11/06 01:59:31;;;;;;;;;;;;;;;;;;4960774;28;19925;-56
2022/11/06 02:01:56;;;;;;;;;;;;;;;;;;4961102;28;19925;-56
2022/11/06 02:04:28;;;;;;;;;;;;;;;;;;4961494;28;19923;-57
2022/11/06 02:06:54;;;;;;;;;;;;;;;;;;4967742;28;20383;-56
2022/11/06 02:09:19;;;;;;;;;;;;;;;;;;4971017;28;19953;-56
2022/11/06 02:11:46;;;;;;;;;;;;;;;;;;4964527;28;20407;-56
2022/11/06 02:14:14;;;;;;;;;;;;;;;;;;4967810;28;19926;-55
2022/11/06 02:16:42;;;;;;;;;;;;;;;;;;4973173;28;19919;-58
2022/11/06 02:19:08;;;;;;;;;;;;;;;;;;4971455;28;20319;-56
2022/11/06 02:21:52;;;;;;;;;;;;;;;;;;4964907;28;19918;-56
2022/11/06 02:24:29;;;;;;;;;;;;;;;;;;4964346;28;19918;-56
2022/11/06 02:26:56;;;;;;;;;;;;;;;;;;4963482;28;20013;-56
2022/11/06 02:29:37;;;;;;;;;;;;;;;;;;4953987;28;19976;-56
2022/11/06 02:32:08;;;;;;;;;;;;;;;;;;4956744;28;20013;-56
2022/11/06 02:34:35;;;;;;;;;;;;;;;;;;4963460;28;19919;-56
2022/11/06 02:37:02;;;;;;;;;;;;;;;;;;4966246;28;19937;-56
2022/11/06 02:39:29;;;;;;;;;;;;;;;;;;4962191;28;19973;-55
2022/11/06 02:41:56;;;;;;;;;;;;;;;;;;4960896;28;19919;-55
2022/11/06 02:44:24;;;;;;;;;;;;;;;;;;4961964;28;20649;-56
2022/11/06 02:46:52;;;;;;;;;;;;;;;;;;4961032;28;19925;-54
2022/11/06 02:49:38;;;;;;;;;;;;;;;;;;4956191;28;19972;-55
2022/11/06 02:52:29;;;;;;;;;;;;;;;;;;4956517;28;20284;-55
2022/11/06 02:54:58;;;;;;;;;;;;;;;;;;4968335;28;20398;-54
2022/11/06 02:57:25;;;;;;;;;;;;;;;;;;4964374;28;20235;-56
2022/11/06 02:59:56;;;;;;;;;;;;;;;;;;4963857;28;19919;-56
2022/11/06 03:02:28;;;;;;;;;;;;;;;;;;4963112;28;19918;-56
2022/11/06 03:04:57;;;;;;;;;;;;;;;;;;4963180;28;20016;-55
2022/11/06 03:07:27;;;;;;;;;;;;;;;;;;4965201;28;19938;-56
2022/11/06 03:09:53;;;;;;;;;;;;;;;;;;4969304;28;19934;-56
2022/11/06 03:12:28;;;;;;;;;;;;;;;;;;4963335;28;19918;-56
2022/11/06 03:15:05;;;;;;;;;;;;;;;;;;4963764;28;19923;-56
2022/11/06 03:17:38;;;;;;;;;;;;;;;;;;4968617;28;20364;-55
2022/11/06 03:20:09;;;;;;;;;;;;;;;;;;4967958;28;20292;-56
2022/11/06 03:22:39;;;;;;;;;;;;;;;;;;4971287;28;19979;-57
2022/11/06 03:25:07;;;;;;;;;;;;;;;;;;4968154;28;19922;-56
2022/11/06 03:27:48;;;;;;;;;;;;;;;;;;4956795;28;19975;-55
2022/11/06 03:30:13;;;;;;;;;;;;;;;;;;4961511;28;19968;-55
2022/11/06 03:32:42;;;;;;;;;;;;;;;;;;4964324;28;19930;-55
2022/11/06 03:35:10;;;;;;;;;;;;;;;;;;4962967;28;19918;-55
2022/11/06 03:37:39;;;;;;;;;;;;;;;;;;4965239;28;19919;-55
2022/11/06 03:40:07;;;;;;;;;;;;;;;;;;4964415;28;19925;-56
2022/11/06 03:42:34;;;;;;;;;;;;;;;;;;4962776;28;19934;-56
2022/11/06 03:45:03;;;;;;;;;;;;;;;;;;4963874;28;20668;-52
2022/11/06 03:47:32;;;;;;;;;;;;;;;;;;4964599;28;19988;-56
2022/11/06 03:50:04;;;;;;;;;;;;;;;;;;4963224;28;19929;-56
2022/11/06 03:52:32;;;;;;;;;;;;;;;;;;4954770;28;19976;-55
2022/11/06 03:55:01;;;;;;;;;;;;;;;;;;4959587;28;19971;-55
2022/11/06 03:57:36;;;;;;;;;;;;;;;;;;4956520;28;19918;-55
2022/11/06 04:00:03;;;;;;;;;;;;;;;;;;4964798;28;19945;-56
2022/11/06 04:02:30;;;;;;;;;;;;;;;;;;4961545;28;19921;-56
2022/11/06 04:04:58;;;;;;;;;;;;;;;;;;4963653;28;19948;-55
2022/11/06 04:07:25;;;;;;;;;;;;;;;;;;4962391;28;19918;-55
2022/11/06 04:15:29;;;;;;;;;;;;;;;;;;4960173;28;19967;-56
2022/11/06 04:17:54;;;;;;;;;;;;;;;;;;4963344;28;20013;-54
2022/11/06 04:23:11;;;;;;;;;;;;;;;;;;4953011;28;19925;-55
2022/11/06 04:28:35;;;;;;;;;;;;;;;;;;4964941;28;20568;-56
2022/11/06 04:31:06;;;;;;;;;;;;;;;;;;4965276;28;19971;-55
2022/11/06 04:33:37;;;;;;;;;;;;;;;;;;4968299;28;20392;-56
2022/11/06 04:36:03;;;;;;;;;;;;;;;;;;4968125;28;19918;-56
2022/11/06 04:38:38;;;;;;;;;;;;;;;;;;4965239;28;19929;-55
2022/11/06 04:41:12;;;;;;;;;;;;;;;;;;4975882;28;19918;-55
2022/11/06 04:43:57;;;;;;;;;;;;;;;;;;4970219;28;19918;-56
2022/11/06 04:46:27;;;;;;;;;;;;;;;;;;4986192;28;19922;-55
2022/11/06 04:48:53;;;;;;;;;;;;;;;;;;4990940;28;19926;-56
2022/11/06 04:51:20;;;;;;;;;;;;;;;;;;4964049;28;20273;-55
2022/11/06 04:53:47;;;;;;;;;;;;;;;;;;4969562;28;19925;-56
2022/11/06 04:56:19;;;;;;;;;;;;;;;;;;4964913;28;20403;-56
2022/11/06 04:58:44;;;;;;;;;;;;;;;;;;4968966;28;19926;-57
2022/11/06 05:01:10;;;;;;;;;;;;;;;;;;4967548;28;19922;-55
2022/11/06 05:03:35;;;;;;;;;;;;;;;;;;4964677;28;20399;-53
2022/11/06 05:06:00;;;;;;;;;;;;;;;;;;4964231;28;20001;-56
2022/11/06 05:08:26;;;;;;;;;;;;;;;;;;4961050;28;19918;-56
2022/11/06 05:10:51;;;;;;;;;;;;;;;;;;4960121;28;19919;-56
2022/11/06 05:13:16;;;;;;;;;;;;;;;;;;4953302;28;19950;-56
2022/11/06 05:15:41;;;;;;;;;;;;;;;;;;4964595;28;19929;-56
2022/11/06 05:18:07;;;;;;;;;;;;;;;;;;4968329;28;19919;-55
2022/11/06 05:20:32;;;;;;;;;;;;;;;;;;4957247;28;19922;-55
2022/11/06 05:22:59;;;;;;;;;;;;;;;;;;4961360;28;19922;-55
2022/11/06 05:25:29;;;;;;;;;;;;;;;;;;4958567;28;19961;-56
2022/11/06 05:27:54;;;;;;;;;;;;;;;;;;4959854;28;19926;-56
2022/11/06 05:30:19;;;;;;;;;;;;;;;;;;4958201;28;19970;-55
2022/11/06 05:32:45;;;;;;;;;;;;;;;;;;4987885;28;19916;-55
2022/11/06 05:35:10;;;;;;;;;;;;;;;;;;4966937;28;20383;-55
2022/11/06 05:37:35;;;;;;;;;;;;;;;;;;4962874;28;19918;-55
2022/11/06 05:40:00;;;;;;;;;;;;;;;;;;4958250;28;19922;-56
2022/11/06 05:42:26;;;;;;;;;;;;;;;;;;4963836;28;19919;-55
2022/11/06 05:44:51;;;;;;;;;;;;;;;;;;4963747;28;19918;-55
2022/11/06 05:47:17;;;;;;;;;;;;;;;;;;4954162;28;20339;-55
2022/11/06 05:49:42;;;;;;;;;;;;;;;;;;4960466;28;19938;-55
2022/11/06 05:52:07;;;;;;;;;;;;;;;;;;4957711;28;19925;-55
2022/11/06 05:54:32;;;;;;;;;;;;;;;;;;4963359;28;19919;-56
2022/11/06 05:56:58;;;;;;;;;;;;;;;;;;4977484;28;19918;-55
2022/11/06 05:59:23;;;;;;;;;;;;;;;;;;4967731;28;19922;-55
2022/11/06 06:01:48;;;;;;;;;;;;;;;;;;4965993;28;19978;-56
2022/11/06 06:04:14;;;;;;;;;;;;;;;;;;4970801;28;19924;-56
2022/11/06 06:06:39;;;;;;;;;;;;;;;;;;4959051;28;19925;-58
2022/11/06 06:09:04;;;;;;;;;;;;;;;;;;4966651;28;19918;-58
2022/11/06 06:11:29;;;;;;;;;;;;;;;;;;4962954;28;19995;-58
2022/11/06 06:13:55;;;;;;;;;;;;;;;;;;4973188;28;19918;-58
2022/11/06 06:16:20;;;;;;;;;;;;;;;;;;4969437;28;19926;-58
2022/11/06 06:18:47;;;;;;;;;;;;;;;;;;4962681;28;19926;-58
2022/11/06 06:21:12;;;;;;;;;;;;;;;;;;4965287;28;19929;-58
2022/11/06 06:23:38;;;;;;;;;;;;;;;;;;4967929;28;19918;-58
2022/11/06 06:26:04;;;;;;;;;;;;;;;;;;4972385;28;19933;-59
2022/11/06 06:28:30;;;;;;;;;;;;;;;;;;4964156;28;19925;-59
2022/11/06 06:30:56;;;;;;;;;;;;;;;;;;4973449;28;19926;-58
2022/11/06 06:33:21;;;;;;;;;;;;;;;;;;4963659;28;19919;-58
2022/11/06 06:35:46;;;;;;;;;;;;;;;;;;4965423;28;19918;-58
2022/11/06 06:38:11;;;;;;;;;;;;;;;;;;4970816;28;19921;-58
2022/11/06 06:40:37;;;;;;;;;;;;;;;;;;4967215;28;19918;-57
2022/11/06 06:43:02;;;;;;;;;;;;;;;;;;4960425;28;20372;-57
2022/11/06 06:45:28;;;;;;;;;;;;;;;;;;4966865;28;19918;-57
2022/11/06 06:47:53;;;;;;;;;;;;;;;;;;4967542;28;19922;-58
2022/11/06 06:50:18;;;;;;;;;;;;;;;;;;4968387;28;19926;-57
2022/11/06 06:52:44;;;;;;;;;;;;;;;;;;4966321;28;19926;-56
2022/11/06 06:55:09;;;;;;;;;;;;;;;;;;4965608;28;19918;-58
2022/11/06 06:57:34;;;;;;;;;;;;;;;;;;4963619;28;19988;-57
2022/11/06 06:59:59;;;;;;;;;;;;;;;;;;4962020;28;19928;-58
2022/11/06 07:02:25;;;;;;;;;;;;;;;;;;4961312;28;20387;-57
2022/11/06 07:04:50;;;;;;;;;;;;;;;;;;4968608;28;19924;-57
2022/11/06 07:07:15;;;;;;;;;;;;;;;;;;4965230;28;19922;-57
2022/11/06 07:09:40;;;;;;;;;;;;;;;;;;4963033;28;19988;-57
2022/11/06 07:12:06;;;;;;;;;;;;;;;;;;4966532;28;20341;-57
2022/11/06 07:14:31;;;;;;;;;;;;;;;;;;4965840;28;19918;-58
2022/11/06 07:16:56;;;;;;;;;;;;;;;;;;4967313;28;19930;-58
2022/11/06 07:19:22;;;;;;;;;;;;;;;;;;4964860;28;20394;-57
2022/11/06 07:21:50;;;;;;;;;;;;;;;;;;4965114;28;19918;-57
2022/11/06 07:24:16;;;;;;;;;;;;;;;;;;4968823;28;19975;-58
2022/11/06 07:26:42;;;;;;;;;;;;;;;;;;4963483;28;20346;-58
2022/11/06 07:29:07;;;;;;;;;;;;;;;;;;4960143;28;19922;-59
2022/11/06 07:31:32;;;;;;;;;;;;;;;;;;4958492;28;19926;-58
2022/11/06 07:33:58;;;;;;;;;;;;;;;;;;4967034;28;19995;-58
2022/11/06 07:36:23;;;;;;;;;;;;;;;;;;4969297;28;20330;-59
2022/11/06 07:38:49;;;;;;;;;;;;;;;;;;4975305;28;19927;-59
2022/11/06 07:41:14;;;;;;;;;;;;;;;;;;4971899;28;19970;-59
2022/11/06 07:43:40;;;;;;;;;;;;;;;;;;4969370;28;20041;-59
2022/11/06 07:46:06;;;;;;;;;;;;;;;;;;4965631;28;19925;-59
2022/11/06 07:48:31;;;;;;;;;;;;;;;;;;4967495;28;20581;-60
2022/11/06 07:50:57;;;;;;;;;;;;;;;;;;4959779;28;19918;-60
2022/11/06 07:53:23;;;;;;;;;;;;;;;;;;4962941;28;19976;-60
2022/11/06 07:55:48;;;;;;;;;;;;;;;;;;4962623;28;20311;-60
2022/11/06 07:58:14;;;;;;;;;;;;;;;;;;4961774;28;19972;-60
2022/11/06 08:00:39;;;;;;;;;;;;;;;;;;4961019;28;19925;-60
2022/11/06 08:03:04;;;;;;;;;;;;;;;;;;4958276;28;20280;-60
2022/11/06 08:05:30;;;;;;;;;;;;;;;;;;4964918;28;19922;-60
2022/11/06 08:07:55;;;;;;;;;;;;;;;;;;4970131;28;19929;-59
2022/11/06 08:10:21;;;;;;;;;;;;;;;;;;4960269;28;20518;-59
2022/11/06 08:12:46;;;;;;;;;;;;;;;;;;4968065;28;20561;-59
2022/11/06 08:15:11;;;;;;;;;;;;;;;;;;4964860;28;19918;-60
2022/11/06 08:17:37;;;;;;;;;;;;;;;;;;4962333;28;19919;-59
2022/11/06 08:20:02;;;;;;;;;;;;;;;;;;4958060;28;20304;-61
2022/11/06 08:22:27;;;;;;;;;;;;;;;;;;4961006;28;20372;-61
2022/11/06 08:24:52;;;;;;;;;;;;;;;;;;4960902;28;19922;-60
2022/11/06 08:27:18;;;;;;;;;;;;;;;;;;4962291;28;20528;-60
2022/11/06 08:29:43;;;;;;;;;;;;;;;;;;4968457;28;20075;-61
2022/11/06 08:32:08;;;;;;;;;;;;;;;;;;4963533;28;19972;-60
2022/11/06 08:34:34;;;;;;;;;;;;;;;;;;4959198;28;20420;-59
2022/11/06 08:37:00;;;;;;;;;;;;;;;;;;4968985;28;19926;-59
2022/11/06 08:39:25;;;;;;;;;;;;;;;;;;4974775;28;20607;-59
2022/11/06 08:41:50;;;;;;;;;;;;;;;;;;4964396;28;19954;-59
2022/11/06 08:44:15;;;;;;;;;;;;;;;;;;4962637;28;20392;-59
2022/11/06 08:46:41;;;;;;;;;;;;;;;;;;4961993;28;19918;-59
2022/11/06 08:49:06;;;;;;;;;;;;;;;;;;4966738;28;19962;-59
2022/11/06 08:51:31;;;;;;;;;;;;;;;;;;4960940;28;19944;-59
2022/11/06 08:53:57;;;;;;;;;;;;;;;;;;4966484;28;19918;-59
2022/11/06 08:56:22;;;;;;;;;;;;;;;;;;4964523;28;20404;-59
2022/11/06 08:58:48;;;;;;;;;;;;;;;;;;4962809;28;19923;-59
2022/11/06 09:01:13;;;;;;;;;;;;;;;;;;4965306;28;19925;-59
2022/11/06 09:03:38;;;;;;;;;;;;;;;;;;4964085;28;20391;-59
2022/11/06 09:06:05;;;;;;;;;;;;;;;;;;4962854;28;19918;-59
2022/11/06 09:08:30;;;;;;;;;;;;;;;;;;4963565;28;19957;-59
2022/11/06 09:10:56;;;;;;;;;;;;;;;;;;4957345;28;20482;-59
2022/11/06 09:13:21;;;;;;;;;;;;;;;;;;4965549;28;20442;-59
2022/11/06 09:15:46;;;;;;;;;;;;;;;;;;4964670;28;19922;-58
2022/11/06 09:18:11;;;;;;;;;;;;;;;;;;4969344;28;19926;-58
2022/11/06 09:20:37;;;;;;;;;;;;;;;;;;4971390;28;19951;-58
2022/11/06 09:23:03;;;;;;;;;;;;;;;;;;4958073;28;19926;-57
2022/11/06 09:25:29;;;;;;;;;;;;;;;;;;4962918;28;19918;-58
2022/11/06 09:27:54;;;;;;;;;;;;;;;;;;4968852;28;20323;-58
2022/11/06 09:30:20;;;;;;;;;;;;;;;;;;4959303;28;19964;-61
2022/11/06 09:32:46;;;;;;;;;;;;;;;;;;4960209;28;19972;-60
2022/11/06 09:35:12;;;;;;;;;;;;;;;;;;4965189;28;19922;-60
2022/11/06 09:37:37;;;;;;;;;;;;;;;;;;4961019;28;19946;-60
2022/11/06 09:40:03;;;;;;;;;;;;;;;;;;4966572;28;19962;-60
2022/11/06 09:42:39;;;;;;;;;;;;;;;;;;4959269;28;19925;-58
2022/11/06 09:45:13;;;;;;;;;;;;;;;;;;4967130;28;19960;-59
2022/11/06 09:47:41;;;;;;;;;;;;;;;;;;4963864;28;20395;-58
2022/11/06 09:50:11;;;;;;;;;;;;;;;;;;4966720;28;19918;-58
2022/11/06 09:52:40;;;;;;;;;;;;;;;;;;4961495;28;20013;-59
2022/11/06 09:55:12;;;;;;;;;;;;;;;;;;4962802;28;20021;-58
2022/11/06 09:57:48;;;;;;;;;;;;;;;;;;4966525;28;19925;-59
2022/11/06 10:00:15;;;;;;;;;;;;;;;;;;4968394;28;19922;-57
2022/11/06 10:02:43;;;;;;;;;;;;;;;;;;4967671;28;19930;-56
2022/11/06 10:05:20;;;;;;;;;;;;;;;;;;4965382;28;20009;-57
2022/11/06 10:07:46;;;;;;;;;;;;;;;;;;4970177;28;19963;-57
2022/11/06 10:10:15;;;;;;;;;;;;;;;;;;4968206;28;19922;-57
2022/11/06 10:12:43;;;;;;;;;;;;;;;;;;4968482;28;19918;-58
2022/11/06 10:15:24;;;;;;;;;;;;;;;;;;4963571;28;19930;-58
2022/11/06 10:17:49;;;;;;;;;;;;;;;;;;4972764;28;20001;-57
2022/11/06 10:20:19;;;;;;;;;;;;;;;;;;4965560;28;20597;-58
2022/11/06 10:22:56;;;;;;;;;;;;;;;;;;4971747;28;20337;-56
2022/11/06 10:25:23;;;;;;;;;;;;;;;;;;4959334;28;20626;-57
2022/11/06 10:28:00;;;;;;;;;;;;;;;;;;4963865;28;20702;-57
2022/11/06 10:30:32;;;;;;;;;;;;;;;;;;4969996;28;19919;-57
2022/11/06 10:33:17;;;;;;;;;;;;;;;;;;4966556;28;19918;-57
2022/11/06 10:35:42;;;;;;;;;;;;;;;;;;4970783;28;20357;-57
2022/11/06 10:38:17;;;;;;;;;;;;;;;;;;4963949;28;19960;-57
2022/11/06 10:40:45;;;;;;;;;;;;;;;;;;4971263;28;19956;-57
2022/11/06 10:43:23;;;;;;;;;;;;;;;;;;4963167;28;19918;-56
2022/11/06 10:45:51;;;;;;;;;;;;;;;;;;4957388;28;20410;-57
2022/11/06 10:48:26;;;;;;;;;;;;;;;;;;4963297;28;19919;-56
2022/11/06 10:51:06;;;;;;;;;;;;;;;;;;4965068;28;19975;-57
2022/11/06 10:53:50;;;;;;;;;;;;;;;;;;4963589;28;19918;-59
2022/11/06 10:56:21;;;;;;;;;;;;;;;;;;4959237;28;19918;-58
2022/11/06 10:58:46;;;;;;;;;;;;;;;;;;4963189;28;20021;-57
2022/11/06 11:01:13;;;;;;;;;;;;;;;;;;4964786;28;20021;-57
2022/11/06 11:03:40;;;;;;;;;;;;;;;;;;4964586;28;20159;-56
2022/11/06 11:06:06;;;;;;;;;;;;;;;;;;4960888;28;20400;-57
2022/11/06 11:08:31;;;;;;;;;;;;;;;;;;4959271;28;19945;-57
2022/11/06 11:11:00;;;;;;;;;;;;;;;;;;4963450;28;19925;-57
2022/11/06 11:13:26;;;;;;;;;;;;;;;;;;4965522;28;19918;-56
2022/11/06 11:15:51;;;;;;;;;;;;;;;;;;4968733;28;19919;-58
2022/11/06 11:18:19;;;;;;;;;;;;;;;;;;4958441;28;20002;-56
2022/11/06 11:20:46;;;;;;;;;;;;;;;;;;4964859;28;20465;-58
2022/11/06 11:23:14;;;;;;;;;;;;;;;;;;4962643;28;20288;-58
2022/11/06 11:25:41;;;;;;;;;;;;;;;;;;4970419;28;19961;-58
2022/11/06 11:28:11;;;;;;;;;;;;;;;;;;4970012;28;19961;-58
2022/11/06 11:30:36;;;;;;;;;;;;;;;;;;4963427;28;20398;-58
2022/11/06 11:33:11;;;;;;;;;;;;;;;;;;4967230;28;19918;-58
2022/11/06 11:35:38;;;;;;;;;;;;;;;;;;4957304;28;20368;-57
2022/11/06 11:38:05;;;;;;;;;;;;;;;;;;4962507;28;19922;-58
2022/11/06 11:40:37;;;;;;;;;;;;;;;;;;4978920;28;19928;-57
2022/11/06 11:43:21;;;;;;;;;;;;;;;;;;4961110;28;20319;-57
2022/11/06 11:46:04;;;;;;;;;;;;;;;;;;4965005;28;19918;-58
2022/11/06 11:48:48;;;;;;;;;;;;;;;;;;4966738;28;19929;-59
2022/11/06 11:51:19;;;;;;;;;;;;;;;;;;4964628;28;20303;-58
2022/11/06 11:53:45;;;;;;;;;;;;;;;;;;4962972;28;19951;-59
2022/11/06 11:56:15;;;;;;;;;;;;;;;;;;4962639;28;19922;-57
2022/11/06 11:58:46;;;;;;;;;;;;;;;;;;4961345;28;20453;-57
2022/11/06 12:01:12;;;;;;;;;;;;;;;;;;4960989;28;20282;-57
2022/11/06 12:03:40;;;;;;;;;;;;;;;;;;4965059;28;19962;-57
2022/11/06 12:06:10;;;;;;;;;;;;;;;;;;4963693;28;19926;-57
2022/11/06 12:08:37;;;;;;;;;;;;;;;;;;4963675;28;19918;-58
2022/11/06 12:11:03;;;;;;;;;;;;;;;;;;4968395;28;20055;-58
2022/11/06 12:13:28;;;;;;;;;;;;;;;;;;4966629;28;19918;-58
2022/11/06 12:15:59;;;;;;;;;;;;;;;;;;4959118;28;19926;-57
2022/11/06 12:18:29;;;;;;;;;;;;;;;;;;4964980;28;19926;-60
2022/11/06 12:21:00;;;;;;;;;;;;;;;;;;4971642;28;20028;-57
2022/11/06 12:23:34;;;;;;;;;;;;;;;;;;4967927;28;19918;-58
2022/11/06 12:26:19;;;;;;;;;;;;;;;;;;4967552;28;19936;-59
2022/11/06 12:28:46;;;;;;;;;;;;;;;;;;4971444;28;19922;-58
2022/11/06 12:31:27;;;;;;;;;;;;;;;;;;4958955;28;19926;-58
2022/11/06 12:33:55;;;;;;;;;;;;;;;;;;4961539;28;20396;-58
2022/11/06 12:36:23;;;;;;;;;;;;;;;;;;4963303;28;19918;-58
2022/11/06 12:38:53;;;;;;;;;;;;;;;;;;4959301;28;19934;-57
2022/11/06 12:41:45;;;;;;;;;;;;;;;;;;4957873;28;20334;-58
2022/11/06 12:44:12;;;;;;;;;;;;;;;;;;4976258;28;19921;-56
2022/11/06 12:46:37;;;;;;;;;;;;;;;;;;4973841;28;19961;-57
2022/11/06 12:49:15;;;;;;;;;;;;;;;;;;4980210;28;20445;-57
2022/11/06 12:51:55;;;;;;;;;;;;;;;;;;4962072;28;19925;-58
2022/11/06 12:54:31;;;;;;;;;;;;;;;;;;4969478;28;19944;-57
2022/11/06 12:57:15;;;;;;;;;;;;;;;;;;4970878;28;19918;-59
2022/11/06 12:59:40;;;;;;;;;;;;;;;;;;4963375;28;20017;-57
2022/11/06 13:02:29;;;;;;;;;;;;;;;;;;4961283;28;20052;-57
2022/11/06 13:05:13;;;;;;;;;;;;;;;;;;4949687;28;19926;-57
2022/11/06 13:07:44;;;;;;;;;;;;;;;;;;4972442;28;20404;-58
2022/11/06 13:10:28;;;;;;;;;;;;;;;;;;4967903;28;19954;-59
2022/11/06 13:12:56;;;;;;;;;;;;;;;;;;4987274;28;19940;-58
2022/11/06 13:15:36;;;;;;;;;;;;;;;;;;4964895;28;19976;-58
2022/11/06 13:18:01;;;;;;;;;;;;;;;;;;4960717;28;19959;-58
2022/11/06 13:20:32;;;;;;;;;;;;;;;;;;4970386;28;19930;-58
2022/11/06 13:22:58;;;;;;;;;;;;;;;;;;4968338;28;20014;-58
2022/11/06 13:25:32;;;;;;;;;;;;;;;;;;4963110;28;20041;-58
2022/11/06 13:28:02;;;;;;;;;;;;;;;;;;4962350;28;19918;-59
2022/11/06 13:30:28;;;;;;;;;;;;;;;;;;4960249;28;19929;-58
2022/11/06 13:33:01;;;;;;;;;;;;;;;;;;4962338;28;19926;-58
2022/11/06 13:35:27;;;;;;;;;;;;;;;;;;4964965;28;19922;-58
2022/11/06 13:37:53;;;;;;;;;;;;;;;;;;4960875;28;19914;-58
2022/11/06 13:40:25;;;;;;;;;;;;;;;;;;4965065;28;20021;-58
2022/11/06 13:42:54;;;;;;;;;;;;;;;;;;4966990;28;19927;-58
2022/11/06 13:45:20;;;;;;;;;;;;;;;;;;4966058;28;19914;-59
2022/11/06 13:47:58;;;;;;;;;;;;;;;;;;4962008;28;20460;-58
2022/11/06 13:50:31;;;;;;;;;;;;;;;;;;4962770;28;19926;-58
2022/11/06 13:53:06;;;;;;;;;;;;;;;;;;4964791;28;19957;-58
2022/11/06 13:55:45;;;;;;;;;;;;;;;;;;4960833;28;20380;-58
2022/11/06 13:58:15;;;;;;;;;;;;;;;;;;4963549;28;19926;-58
2022/11/06 14:00:59;;;;;;;;;;;;;;;;;;4962385;28;19929;-58
2022/11/06 14:03:37;;;;;;;;;;;;;;;;;;4963955;28;20359;-58
2022/11/06 14:06:15;;;;;;;;;;;;;;;;;;4962715;28;19918;-57
2022/11/06 14:08:40;;;;;;;;;;;;;;;;;;4961524;28;19918;-58
2022/11/06 14:11:10;;;;;;;;;;;;;;;;;;4966588;28;19918;-58
2022/11/06 14:13:35;;;;;;;;;;;;;;;;;;4960645;28;19926;-58
2022/11/06 14:16:05;;;;;;;;;;;;;;;;;;4965507;28;19918;-57
2022/11/06 14:18:31;;;;;;;;;;;;;;;;;;4968809;28;20017;-58
2022/11/06 14:21:14;;;;;;;;;;;;;;;;;;4960616;28;20001;-58
2022/11/06 14:23:46;;;;;;;;;;;;;;;;;;4963991;28;19963;-57
2022/11/06 14:26:12;;;;;;;;;;;;;;;;;;4964019;28;19919;-57
2022/11/06 14:28:38;;;;;;;;;;;;;;;;;;4964736;28;20429;-57
2022/11/06 14:31:04;;;;;;;;;;;;;;;;;;4968408;28;20325;-57
2022/11/06 14:33:48;;;;;;;;;;;;;;;;;;4961005;28;19919;-57
2022/11/06 14:36:22;;;;;;;;;;;;;;;;;;4966760;28;19922;-57
2022/11/06 14:38:47;;;;;;;;;;;;;;;;;;4962517;28;19933;-57
2022/11/06 14:41:31;;;;;;;;;;;;;;;;;;4962746;28;19922;-57
2022/11/06 14:43:57;;;;;;;;;;;;;;;;;;4962418;28;19953;-57
2022/11/06 14:46:23;;;;;;;;;;;;;;;;;;4965220;28;19984;-57
2022/11/06 14:48:50;;;;;;;;;;;;;;;;;;4964699;28;19925;-57
2022/11/06 14:51:23;;;;;;;;;;;;;;;;;;4965130;28;19930;-57
2022/11/06 14:53:50;;;;;;;;;;;;;;;;;;4964127;28;19965;-58
2022/11/06 14:56:41;;;;;;;;;;;;;;;;;;4965535;28;19925;-56
2022/11/06 14:59:15;;;;;;;;;;;;;;;;;;4969529;28;19922;-58
2022/11/06 15:01:52;;;;;;;;;;;;;;;;;;4960695;28;19925;-57
2022/11/06 15:04:18;;;;;;;;;;;;;;;;;;4960145;28;19990;-57
2022/11/06 15:06:46;;;;;;;;;;;;;;;;;;4960198;28;19922;-57
2022/11/06 15:09:11;;;;;;;;;;;;;;;;;;4964431;28;19926;-56
2022/11/06 15:11:41;;;;;;;;;;;;;;;;;;4962073;28;19975;-57
2022/11/06 15:14:06;;;;;;;;;;;;;;;;;;4957402;28;19918;-57
2022/11/06 15:16:42;;;;;;;;;;;;;;;;;;4959934;28;20342;-57
2022/11/06 15:19:19;;;;;;;;;;;;;;;;;;4953314;28;19922;-58
2022/11/06 15:21:46;;;;;;;;;;;;;;;;;;4956201;28;20384;-57
2022/11/06 15:24:16;;;;;;;;;;;;;;;;;;4964709;28;19930;-58
2022/11/06 15:26:44;;;;;;;;;;;;;;;;;;4965616;28;20387;-57
2022/11/06 15:29:13;;;;;;;;;;;;;;;;;;4963175;28;19925;-57
2022/11/06 15:31:39;;;;;;;;;;;;;;;;;;4967642;28;20392;-56
2022/11/06 15:34:07;;;;;;;;;;;;;;;;;;4969246;28;19918;-57
2022/11/06 15:36:36;;;;;;;;;;;;;;;;;;4966025;28;19957;-57
2022/11/06 15:39:19;;;;;;;;;;;;;;;;;;4958868;28;19958;-58
2022/11/06 15:41:44;;;;;;;;;;;;;;;;;;4964607;28;19964;-57
2022/11/06 15:44:10;;;;;;;;;;;;;;;;;;4964592;28;19918;-57
2022/11/06 15:46:35;;;;;;;;;;;;;;;;;;4969361;28;20380;-57
2022/11/06 15:49:05;;;;;;;;;;;;;;;;;;4969493;28;19951;-59
2022/11/06 15:51:31;;;;;;;;;;;;;;;;;;4970015;28;20064;-59
2022/11/06 15:53:56;;;;;;;;;;;;;;;;;;4962633;28;20005;-56
2022/11/06 15:56:24;;;;;;;;;;;;;;;;;;4956675;28;19918;-59
2022/11/06 15:59:06;;;;;;;;;;;;;;;;;;4962425;28;20410;-57
2022/11/06 16:01:32;;;;;;;;;;;;;;;;;;4965094;28;19922;-59
2022/11/06 16:03:58;;;;;;;;;;;;;;;;;;4960426;28;20376;-59
2022/11/06 16:06:24;;;;;;;;;;;;;;;;;;4959893;28;19922;-58
2022/11/06 16:08:50;;;;;;;;;;;;;;;;;;4965571;28;19926;-58
2022/11/06 16:11:17;;;;;;;;;;;;;;;;;;4964313;28;20414;-58
2022/11/06 16:13:44;;;;;;;;;;;;;;;;;;4958723;28;19926;-58
2022/11/06 16:16:29;;;;;;;;;;;;;;;;;;4957320;28;19964;-59
2022/11/06 16:18:55;;;;;;;;;;;;;;;;;;4956856;28;19962;-58
2022/11/06 16:21:22;;;;;;;;;;;;;;;;;;4959875;28;20352;-58
2022/11/06 16:23:48;;;;;;;;;;;;;;;;;;4964095;28;19967;-58
2022/11/06 16:26:15;;;;;;;;;;;;;;;;;;4966752;28;20497;-56
2022/11/06 16:28:41;;;;;;;;;;;;;;;;;;4966952;28;19929;-58
2022/11/06 16:31:10;;;;;;;;;;;;;;;;;;4960493;28;20015;-58
2022/11/06 16:33:35;;;;;;;;;;;;;;;;;;4955531;28;19926;-59
2022/11/06 16:36:08;;;;;;;;;;;;;;;;;;4956963;28;20414;-58
2022/11/06 16:38:36;;;;;;;;;;;;;;;;;;4959676;28;19922;-58
2022/11/06 16:41:01;;;;;;;;;;;;;;;;;;4965726;28;19925;-59
2022/11/06 16:43:26;;;;;;;;;;;;;;;;;;4963615;28;19922;-59
2022/11/06 16:45:59;;;;;;;;;;;;;;;;;;4963038;28;19961;-58
2022/11/06 16:48:34;;;;;;;;;;;;;;;;;;4967088;28;19918;-58
2022/11/06 16:51:01;;;;;;;;;;;;;;;;;;4962864;28;19941;-57
2022/11/06 16:53:28;;;;;;;;;;;;;;;;;;4960423;28;20382;-58
2022/11/06 16:55:55;;;;;;;;;;;;;;;;;;4962648;28;20628;-58
2022/11/06 16:58:21;;;;;;;;;;;;;;;;;;4966068;28;20334;-58
2022/11/06 17:00:53;;;;;;;;;;;;;;;;;;4959271;28;19923;-58
2022/11/06 17:03:20;;;;;;;;;;;;;;;;;;4957406;28;20009;-58
2022/11/06 17:05:53;;;;;;;;;;;;;;;;;;4967157;28;19925;-58
2022/11/06 17:08:23;;;;;;;;;;;;;;;;;;4959623;28;19926;-58